sensor_id;sensor_type;location;lat;lon;timestamp;temperature;humidity
21495;DHT22;10909;53.590;10.054;2023-06-14T00:01:02;19.80;48.50
21495;DHT22;10909;53.590;10.054;2023-06-14T00:03:32;19.70;48.80
21495;DHT22;10909;53.590;10.054;2023-06-14T00:05:58;19.70;48.80
21495;DHT22;10909;53.590;10.054;2023-06-14T00:08:24;19.60;48.80
21495;DHT22;10909;53.590;10.054;2023-06-14T00:10:51;19.60;49.00
21495;DHT22;10909;53.590;10.054;2023-06-14T00:13:16;19.60;49.00
21495;DHT22;10909;53.590;10.054;2023-06-14T00:15:42;19.50;48.70
21495;DHT22;10909;53.590;10.054;2023-06-14T00:18:08;19.50;48.70
21495;DHT22;10909;53.590;10.054;2023-06-14T00:20:35;19.50;48.70
21495;DHT22;10909;53.590;10.054;2023-06-14T00:23:02;19.50;49.20
21495;DHT22;10909;53.590;10.054;2023-06-14T00:25:28;19.50;49.00
21495;DHT22;10909;53.590;10.054;2023-06-14T00:27:54;19.50;49.20
21495;DHT22;10909;53.590;10.054;2023-06-14T00:30:20;19.40;48.90
21495;DHT22;10909;53.590;10.054;2023-06-14T00:32:47;19.40;49.10
21495;DHT22;10909;53.590;10.054;2023-06-14T00:35:13;19.30;49.30
21495;DHT22;10909;53.590;10.054;2023-06-14T00:37:39;19.30;49.20
21495;DHT22;10909;53.590;10.054;2023-06-14T00:40:06;19.30;49.30
21495;DHT22;10909;53.590;10.054;2023-06-14T00:42:32;19.30;49.40
21495;DHT22;10909;53.590;10.054;2023-06-14T00:45:00;19.30;49.30
21495;DHT22;10909;53.590;10.054;2023-06-14T00:47:28;19.30;49.50
21495;DHT22;10909;53.590;10.054;2023-06-14T00:49:55;19.30;49.50
21495;DHT22;10909;53.590;10.054;2023-06-14T00:52:22;19.30;49.70
21495;DHT22;10909;53.590;10.054;2023-06-14T00:54:49;19.20;49.50
21495;DHT22;10909;53.590;10.054;2023-06-14T00:57:15;19.20;49.80
21495;DHT22;10909;53.590;10.054;2023-06-14T00:59:47;19.20;49.60
21495;DHT22;10909;53.590;10.054;2023-06-14T01:02:13;19.20;50.10
21495;DHT22;10909;53.590;10.054;2023-06-14T01:04:41;19.10;49.80
21495;DHT22;10909;53.590;10.054;2023-06-14T01:10:20;19.10;50.90
21495;DHT22;10909;53.590;10.054;2023-06-14T01:12:56;19.10;50.20
21495;DHT22;10909;53.590;10.054;2023-06-14T01:15:23;19.00;50.00
21495;DHT22;10909;53.590;10.054;2023-06-14T01:17:50;19.00;49.90
21495;DHT22;10909;53.590;10.054;2023-06-14T01:20:17;19.00;50.30
21495;DHT22;10909;53.590;10.054;2023-06-14T01:22:52;19.00;50.00
21495;DHT22;10909;53.590;10.054;2023-06-14T01:25:19;19.00;50.60
21495;DHT22;10909;53.590;10.054;2023-06-14T01:28:03;19.00;50.10
21495;DHT22;10909;53.590;10.054;2023-06-14T01:30:31;19.00;50.80
21495;DHT22;10909;53.590;10.054;2023-06-14T01:32:58;18.90;50.20
21495;DHT22;10909;53.590;10.054;2023-06-14T01:35:24;18.90;50.10
21495;DHT22;10909;53.590;10.054;2023-06-14T01:37:51;18.90;50.40
21495;DHT22;10909;53.590;10.054;2023-06-14T01:40:18;18.90;50.50
21495;DHT22;10909;53.590;10.054;2023-06-14T01:42:47;18.90;50.30
21495;DHT22;10909;53.590;10.054;2023-06-14T01:45:14;18.90;50.40
21495;DHT22;10909;53.590;10.054;2023-06-14T01:47:40;18.90;50.30
21495;DHT22;10909;53.590;10.054;2023-06-14T01:50:07;18.90;50.30
21495;DHT22;10909;53.590;10.054;2023-06-14T01:52:33;18.90;50.60
21495;DHT22;10909;53.590;10.054;2023-06-14T01:54:59;18.80;50.50
21495;DHT22;10909;53.590;10.054;2023-06-14T01:57:28;18.80;50.60
21495;DHT22;10909;53.590;10.054;2023-06-14T01:59:53;18.80;50.60
21495;DHT22;10909;53.590;10.054;2023-06-14T02:02:19;18.80;50.90
21495;DHT22;10909;53.590;10.054;2023-06-14T02:04:45;18.70;50.80
21495;DHT22;10909;53.590;10.054;2023-06-14T02:07:12;18.70;50.90
21495;DHT22;10909;53.590;10.054;2023-06-14T02:09:38;18.70;50.90
21495;DHT22;10909;53.590;10.054;2023-06-14T02:12:04;18.70;50.90
21495;DHT22;10909;53.590;10.054;2023-06-14T02:14:30;18.60;50.90
21495;DHT22;10909;53.590;10.054;2023-06-14T02:16:56;18.60;51.00
21495;DHT22;10909;53.590;10.054;2023-06-14T02:19:22;18.60;51.30
21495;DHT22;10909;53.590;10.054;2023-06-14T02:21:47;18.50;51.10
21495;DHT22;10909;53.590;10.054;2023-06-14T02:24:13;18.50;51.40
21495;DHT22;10909;53.590;10.054;2023-06-14T02:26:39;18.50;51.40
21495;DHT22;10909;53.590;10.054;2023-06-14T02:29:06;18.40;51.40
21495;DHT22;10909;53.590;10.054;2023-06-14T02:31:35;18.40;51.60
21495;DHT22;10909;53.590;10.054;2023-06-14T02:34:01;18.40;51.70
21495;DHT22;10909;53.590;10.054;2023-06-14T02:36:27;18.40;51.80
21495;DHT22;10909;53.590;10.054;2023-06-14T02:38:55;18.40;51.80
21495;DHT22;10909;53.590;10.054;2023-06-14T02:41:23;18.30;51.90
21495;DHT22;10909;53.590;10.054;2023-06-14T02:43:48;18.30;51.90
21495;DHT22;10909;53.590;10.054;2023-06-14T02:46:14;18.30;52.10
21495;DHT22;10909;53.590;10.054;2023-06-14T02:48:40;18.30;52.30
21495;DHT22;10909;53.590;10.054;2023-06-14T02:51:06;18.30;52.30
21495;DHT22;10909;53.590;10.054;2023-06-14T02:53:33;18.20;52.20
21495;DHT22;10909;53.590;10.054;2023-06-14T02:56:00;18.20;52.30
21495;DHT22;10909;53.590;10.054;2023-06-14T02:58:26;18.20;52.40
21495;DHT22;10909;53.590;10.054;2023-06-14T03:00:52;18.20;52.40
21495;DHT22;10909;53.590;10.054;2023-06-14T03:03:20;18.20;52.40
21495;DHT22;10909;53.590;10.054;2023-06-14T03:05:48;18.20;52.50
21495;DHT22;10909;53.590;10.054;2023-06-14T03:08:15;18.20;52.60
21495;DHT22;10909;53.590;10.054;2023-06-14T03:10:51;18.20;52.70
21495;DHT22;10909;53.590;10.054;2023-06-14T03:13:17;18.20;52.80
21495;DHT22;10909;53.590;10.054;2023-06-14T03:15:46;18.20;52.80
21495;DHT22;10909;53.590;10.054;2023-06-14T03:18:18;18.20;52.90
21495;DHT22;10909;53.590;10.054;2023-06-14T03:20:44;18.10;53.00
21495;DHT22;10909;53.590;10.054;2023-06-14T03:23:11;18.10;53.00
21495;DHT22;10909;53.590;10.054;2023-06-14T03:25:37;18.10;53.20
21495;DHT22;10909;53.590;10.054;2023-06-14T03:28:07;18.10;53.30
21495;DHT22;10909;53.590;10.054;2023-06-14T03:30:32;18.10;53.40
21495;DHT22;10909;53.590;10.054;2023-06-14T03:32:58;18.10;53.30
21495;DHT22;10909;53.590;10.054;2023-06-14T03:35:27;18.10;53.40
21495;DHT22;10909;53.590;10.054;2023-06-14T03:37:53;18.10;53.70
21495;DHT22;10909;53.590;10.054;2023-06-14T03:40:19;18.00;53.50
21495;DHT22;10909;53.590;10.054;2023-06-14T03:42:48;18.00;53.60
21495;DHT22;10909;53.590;10.054;2023-06-14T03:45:14;18.00;53.70
21495;DHT22;10909;53.590;10.054;2023-06-14T03:47:40;18.00;53.60
21495;DHT22;10909;53.590;10.054;2023-06-14T03:50:05;18.00;53.80
21495;DHT22;10909;53.590;10.054;2023-06-14T03:52:31;18.00;53.90
21495;DHT22;10909;53.590;10.054;2023-06-14T03:54:58;18.00;53.90
21495;DHT22;10909;53.590;10.054;2023-06-14T03:57:26;17.90;53.80
21495;DHT22;10909;53.590;10.054;2023-06-14T03:59:51;17.90;54.30
21495;DHT22;10909;53.590;10.054;2023-06-14T04:02:17;17.90;54.20
21495;DHT22;10909;53.590;10.054;2023-06-14T04:04:44;17.90;54.40
21495;DHT22;10909;53.590;10.054;2023-06-14T04:07:14;18.00;54.50
21495;DHT22;10909;53.590;10.054;2023-06-14T04:09:40;18.00;54.60
21495;DHT22;10909;53.590;10.054;2023-06-14T04:12:07;18.00;54.40
21495;DHT22;10909;53.590;10.054;2023-06-14T04:14:34;18.00;54.60
21495;DHT22;10909;53.590;10.054;2023-06-14T04:17:02;18.00;54.80
21495;DHT22;10909;53.590;10.054;2023-06-14T04:19:27;18.00;54.90
21495;DHT22;10909;53.590;10.054;2023-06-14T04:21:53;18.10;55.00
21495;DHT22;10909;53.590;10.054;2023-06-14T04:24:19;18.10;55.00
21495;DHT22;10909;53.590;10.054;2023-06-14T04:26:45;18.10;55.20
21495;DHT22;10909;53.590;10.054;2023-06-14T04:29:13;18.10;55.20
21495;DHT22;10909;53.590;10.054;2023-06-14T04:31:42;18.20;55.20
21495;DHT22;10909;53.590;10.054;2023-06-14T04:34:08;18.10;55.40
21495;DHT22;10909;53.590;10.054;2023-06-14T04:36:34;18.20;55.20
21495;DHT22;10909;53.590;10.054;2023-06-14T04:39:02;18.30;55.30
21495;DHT22;10909;53.590;10.054;2023-06-14T04:41:32;18.40;55.30
21495;DHT22;10909;53.590;10.054;2023-06-14T04:43:58;18.40;55.40
21495;DHT22;10909;53.590;10.054;2023-06-14T04:46:27;18.50;55.30
21495;DHT22;10909;53.590;10.054;2023-06-14T04:48:54;18.50;55.30
21495;DHT22;10909;53.590;10.054;2023-06-14T04:51:20;18.60;55.30
21495;DHT22;10909;53.590;10.054;2023-06-14T04:53:47;18.70;55.30
21495;DHT22;10909;53.590;10.054;2023-06-14T04:56:15;18.70;55.20
21495;DHT22;10909;53.590;10.054;2023-06-14T04:58:40;18.70;55.20
21495;DHT22;10909;53.590;10.054;2023-06-14T05:01:06;18.70;55.40
21495;DHT22;10909;53.590;10.054;2023-06-14T05:03:34;18.80;55.30
21495;DHT22;10909;53.590;10.054;2023-06-14T05:06:03;18.90;55.30
21495;DHT22;10909;53.590;10.054;2023-06-14T05:08:29;19.00;55.20
21495;DHT22;10909;53.590;10.054;2023-06-14T05:10:55;19.10;55.20
21495;DHT22;10909;53.590;10.054;2023-06-14T05:13:20;19.10;55.20
21495;DHT22;10909;53.590;10.054;2023-06-14T05:15:48;19.20;55.10
21495;DHT22;10909;53.590;10.054;2023-06-14T05:18:14;19.30;55.00
21495;DHT22;10909;53.590;10.054;2023-06-14T05:20:40;19.40;54.90
21495;DHT22;10909;53.590;10.054;2023-06-14T05:23:08;19.50;54.90
21495;DHT22;10909;53.590;10.054;2023-06-14T05:25:34;19.60;54.80
21495;DHT22;10909;53.590;10.054;2023-06-14T05:27:59;19.60;54.60
21495;DHT22;10909;53.590;10.054;2023-06-14T05:30:25;19.70;54.40
21495;DHT22;10909;53.590;10.054;2023-06-14T05:32:51;19.80;54.40
21495;DHT22;10909;53.590;10.054;2023-06-14T05:35:18;19.80;54.30
21495;DHT22;10909;53.590;10.054;2023-06-14T05:37:43;19.90;54.40
21495;DHT22;10909;53.590;10.054;2023-06-14T05:40:09;20.00;54.30
21495;DHT22;10909;53.590;10.054;2023-06-14T05:42:35;20.10;54.20
21495;DHT22;10909;53.590;10.054;2023-06-14T05:45:02;20.10;54.10
21495;DHT22;10909;53.590;10.054;2023-06-14T05:47:28;20.20;54.10
21495;DHT22;10909;53.590;10.054;2023-06-14T05:49:54;20.30;53.90
21495;DHT22;10909;53.590;10.054;2023-06-14T05:52:20;20.40;53.70
21495;DHT22;10909;53.590;10.054;2023-06-14T05:54:46;20.40;53.60
21495;DHT22;10909;53.590;10.054;2023-06-14T05:57:12;20.50;53.50
21495;DHT22;10909;53.590;10.054;2023-06-14T05:59:38;20.50;53.50
21495;DHT22;10909;53.590;10.054;2023-06-14T06:02:10;20.60;53.30
21495;DHT22;10909;53.590;10.054;2023-06-14T06:04:36;20.70;53.30
21495;DHT22;10909;53.590;10.054;2023-06-14T06:07:01;20.70;53.10
21495;DHT22;10909;53.590;10.054;2023-06-14T06:09:27;20.80;53.00
21495;DHT22;10909;53.590;10.054;2023-06-14T06:11:53;20.90;53.00
21495;DHT22;10909;53.590;10.054;2023-06-14T06:14:18;20.90;52.90
21495;DHT22;10909;53.590;10.054;2023-06-14T06:16:44;20.90;52.80
21495;DHT22;10909;53.590;10.054;2023-06-14T06:19:10;21.00;52.70
21495;DHT22;10909;53.590;10.054;2023-06-14T06:21:36;21.10;52.60
21495;DHT22;10909;53.590;10.054;2023-06-14T06:24:02;21.20;52.50
21495;DHT22;10909;53.590;10.054;2023-06-14T06:26:31;21.20;52.30
21495;DHT22;10909;53.590;10.054;2023-06-14T06:28:56;21.30;52.10
21495;DHT22;10909;53.590;10.054;2023-06-14T06:31:22;21.30;51.90
21495;DHT22;10909;53.590;10.054;2023-06-14T06:33:49;21.40;51.80
21495;DHT22;10909;53.590;10.054;2023-06-14T06:36:15;21.40;51.60
21495;DHT22;10909;53.590;10.054;2023-06-14T06:38:40;21.50;51.50
21495;DHT22;10909;53.590;10.054;2023-06-14T06:41:06;21.50;51.30
21495;DHT22;10909;53.590;10.054;2023-06-14T06:43:32;21.50;51.20
21495;DHT22;10909;53.590;10.054;2023-06-14T06:45:57;21.60;51.00
21495;DHT22;10909;53.590;10.054;2023-06-14T06:48:23;21.60;51.00
21495;DHT22;10909;53.590;10.054;2023-06-14T06:50:49;21.60;50.90
21495;DHT22;10909;53.590;10.054;2023-06-14T06:53:14;21.70;50.70
21495;DHT22;10909;53.590;10.054;2023-06-14T06:55:40;21.70;50.70
21495;DHT22;10909;53.590;10.054;2023-06-14T06:58:06;21.80;50.60
21495;DHT22;10909;53.590;10.054;2023-06-14T07:00:31;21.80;50.50
21495;DHT22;10909;53.590;10.054;2023-06-14T07:02:57;21.90;50.40
21495;DHT22;10909;53.590;10.054;2023-06-14T07:05:23;22.00;50.30
21495;DHT22;10909;53.590;10.054;2023-06-14T07:07:49;22.00;50.20
21495;DHT22;10909;53.590;10.054;2023-06-14T07:10:16;22.10;50.00
21495;DHT22;10909;53.590;10.054;2023-06-14T07:12:42;22.10;49.90
21495;DHT22;10909;53.590;10.054;2023-06-14T07:15:07;22.20;49.70
21495;DHT22;10909;53.590;10.054;2023-06-14T07:17:34;22.20;49.50
21495;DHT22;10909;53.590;10.054;2023-06-14T07:20:00;22.20;49.40
21495;DHT22;10909;53.590;10.054;2023-06-14T07:22:26;22.30;49.30
21495;DHT22;10909;53.590;10.054;2023-06-14T07:24:52;22.40;49.20
21495;DHT22;10909;53.590;10.054;2023-06-14T07:27:17;22.40;49.00
21495;DHT22;10909;53.590;10.054;2023-06-14T07:29:43;22.50;48.80
21495;DHT22;10909;53.590;10.054;2023-06-14T07:32:09;22.50;48.70
21495;DHT22;10909;53.590;10.054;2023-06-14T07:34:34;22.60;48.70
21495;DHT22;10909;53.590;10.054;2023-06-14T07:37:00;22.60;48.50
21495;DHT22;10909;53.590;10.054;2023-06-14T07:39:26;22.70;49.00
21495;DHT22;10909;53.590;10.054;2023-06-14T07:41:51;22.70;48.30
21495;DHT22;10909;53.590;10.054;2023-06-14T07:44:17;22.80;48.10
21495;DHT22;10909;53.590;10.054;2023-06-14T07:46:43;22.90;48.00
21495;DHT22;10909;53.590;10.054;2023-06-14T07:49:08;23.00;48.00
21495;DHT22;10909;53.590;10.054;2023-06-14T07:51:34;23.00;47.70
21495;DHT22;10909;53.590;10.054;2023-06-14T07:54:00;23.00;47.60
21495;DHT22;10909;53.590;10.054;2023-06-14T07:56:27;23.10;47.50
21495;DHT22;10909;53.590;10.054;2023-06-14T07:58:53;23.10;47.40
21495;DHT22;10909;53.590;10.054;2023-06-14T08:01:18;23.20;47.30
21495;DHT22;10909;53.590;10.054;2023-06-14T08:03:45;23.20;47.10
21495;DHT22;10909;53.590;10.054;2023-06-14T08:06:11;23.30;47.10
21495;DHT22;10909;53.590;10.054;2023-06-14T08:08:37;23.30;46.90
21495;DHT22;10909;53.590;10.054;2023-06-14T08:11:02;23.40;46.90
21495;DHT22;10909;53.590;10.054;2023-06-14T08:13:28;23.40;46.50
21495;DHT22;10909;53.590;10.054;2023-06-14T08:15:54;23.50;46.50
21495;DHT22;10909;53.590;10.054;2023-06-14T08:18:20;23.50;46.30
21495;DHT22;10909;53.590;10.054;2023-06-14T08:20:46;23.60;46.20
21495;DHT22;10909;53.590;10.054;2023-06-14T08:23:12;23.60;46.20
21495;DHT22;10909;53.590;10.054;2023-06-14T08:25:38;23.70;46.20
21495;DHT22;10909;53.590;10.054;2023-06-14T08:28:04;23.70;46.00
21495;DHT22;10909;53.590;10.054;2023-06-14T08:30:30;23.80;46.00
21495;DHT22;10909;53.590;10.054;2023-06-14T08:32:56;23.80;45.90
21495;DHT22;10909;53.590;10.054;2023-06-14T08:35:22;23.90;45.80
21495;DHT22;10909;53.590;10.054;2023-06-14T08:37:48;24.00;45.80
21495;DHT22;10909;53.590;10.054;2023-06-14T08:40:22;24.00;45.20
21495;DHT22;10909;53.590;10.054;2023-06-14T08:42:54;24.10;45.50
21495;DHT22;10909;53.590;10.054;2023-06-14T08:45:21;24.20;45.40
21495;DHT22;10909;53.590;10.054;2023-06-14T08:47:52;24.20;45.30
21495;DHT22;10909;53.590;10.054;2023-06-14T08:50:21;24.30;45.10
21495;DHT22;10909;53.590;10.054;2023-06-14T08:52:53;24.40;44.90
21495;DHT22;10909;53.590;10.054;2023-06-14T08:55:19;24.40;44.90
21495;DHT22;10909;53.590;10.054;2023-06-14T08:57:56;24.50;45.00
21495;DHT22;10909;53.590;10.054;2023-06-14T09:00:27;24.50;44.90
21495;DHT22;10909;53.590;10.054;2023-06-14T09:02:53;24.50;44.80
21495;DHT22;10909;53.590;10.054;2023-06-14T09:05:27;24.50;44.60
21495;DHT22;10909;53.590;10.054;2023-06-14T09:07:53;24.60;44.70
21495;DHT22;10909;53.590;10.054;2023-06-14T09:10:22;24.60;44.40
21495;DHT22;10909;53.590;10.054;2023-06-14T09:12:48;24.70;44.40
21495;DHT22;10909;53.590;10.054;2023-06-14T09:15:14;24.70;44.00
21495;DHT22;10909;53.590;10.054;2023-06-14T09:17:40;24.80;43.90
21495;DHT22;10909;53.590;10.054;2023-06-14T09:20:07;24.80;43.80
21495;DHT22;10909;53.590;10.054;2023-06-14T09:22:38;24.90;43.70
21495;DHT22;10909;53.590;10.054;2023-06-14T09:25:05;24.90;43.70
21495;DHT22;10909;53.590;10.054;2023-06-14T09:27:31;24.90;43.60
21495;DHT22;10909;53.590;10.054;2023-06-14T09:29:56;25.00;43.60
21495;DHT22;10909;53.590;10.054;2023-06-14T09:32:22;25.10;43.70
21495;DHT22;10909;53.590;10.054;2023-06-14T09:34:49;25.10;43.40
21495;DHT22;10909;53.590;10.054;2023-06-14T09:37:28;25.20;43.40
21495;DHT22;10909;53.590;10.054;2023-06-14T09:39:55;25.30;43.30
21495;DHT22;10909;53.590;10.054;2023-06-14T09:42:21;25.30;43.20
21495;DHT22;10909;53.590;10.054;2023-06-14T09:44:51;25.30;43.80
21495;DHT22;10909;53.590;10.054;2023-06-14T09:47:17;25.40;43.00
21495;DHT22;10909;53.590;10.054;2023-06-14T09:49:43;25.40;42.90
21495;DHT22;10909;53.590;10.054;2023-06-14T09:52:16;25.50;42.70
21495;DHT22;10909;53.590;10.054;2023-06-14T09:54:45;25.50;42.60
21495;DHT22;10909;53.590;10.054;2023-06-14T09:57:17;25.60;43.20
21495;DHT22;10909;53.590;10.054;2023-06-14T09:59:46;25.60;42.60
21495;DHT22;10909;53.590;10.054;2023-06-14T10:02:29;25.60;42.50
21495;DHT22;10909;53.590;10.054;2023-06-14T10:05:07;25.70;42.00
21495;DHT22;10909;53.590;10.054;2023-06-14T10:08:03;25.70;42.30
21495;DHT22;10909;53.590;10.054;2023-06-14T10:10:30;25.80;42.20
21495;DHT22;10909;53.590;10.054;2023-06-14T10:12:56;25.80;42.50
21495;DHT22;10909;53.590;10.054;2023-06-14T10:21:23;26.00;41.70
21495;DHT22;10909;53.590;10.054;2023-06-14T10:23:56;26.00;41.80
21495;DHT22;10909;53.590;10.054;2023-06-14T10:26:25;26.10;41.80
21495;DHT22;10909;53.590;10.054;2023-06-14T10:29:00;26.10;41.60
21495;DHT22;10909;53.590;10.054;2023-06-14T10:31:48;26.20;41.70
21495;DHT22;10909;53.590;10.054;2023-06-14T10:34:30;26.30;41.50
21495;DHT22;10909;53.590;10.054;2023-06-14T10:37:13;26.40;41.50
21495;DHT22;10909;53.590;10.054;2023-06-14T10:39:44;26.40;41.10
21495;DHT22;10909;53.590;10.054;2023-06-14T10:42:11;26.50;41.10
21495;DHT22;10909;53.590;10.054;2023-06-14T10:44:38;26.50;41.10
21495;DHT22;10909;53.590;10.054;2023-06-14T10:47:08;26.60;40.90
21495;DHT22;10909;53.590;10.054;2023-06-14T10:49:46;26.60;40.80
21495;DHT22;10909;53.590;10.054;2023-06-14T10:52:15;26.70;40.40
21495;DHT22;10909;53.590;10.054;2023-06-14T10:57:38;26.80;40.00
21495;DHT22;10909;53.590;10.054;2023-06-14T11:00:05;26.70;39.90
21495;DHT22;10909;53.590;10.054;2023-06-14T11:05:27;26.70;39.70
21495;DHT22;10909;53.590;10.054;2023-06-14T11:10:50;26.70;39.90
21495;DHT22;10909;53.590;10.054;2023-06-14T11:13:16;26.80;40.00
21495;DHT22;10909;53.590;10.054;2023-06-14T11:15:46;26.80;39.70
21495;DHT22;10909;53.590;10.054;2023-06-14T11:18:14;26.90;39.60
21495;DHT22;10909;53.590;10.054;2023-06-14T11:20:42;27.00;39.80
21495;DHT22;10909;53.590;10.054;2023-06-14T11:23:07;27.00;39.60
21495;DHT22;10909;53.590;10.054;2023-06-14T11:25:33;27.00;39.60
21495;DHT22;10909;53.590;10.054;2023-06-14T11:27:59;27.10;39.70
21495;DHT22;10909;53.590;10.054;2023-06-14T11:30:25;27.10;39.70
21495;DHT22;10909;53.590;10.054;2023-06-14T11:32:53;27.10;39.50
21495;DHT22;10909;53.590;10.054;2023-06-14T11:35:21;27.10;39.50
21495;DHT22;10909;53.590;10.054;2023-06-14T11:37:48;27.10;39.40
21495;DHT22;10909;53.590;10.054;2023-06-14T11:40:15;27.10;39.40
21495;DHT22;10909;53.590;10.054;2023-06-14T11:42:41;27.20;39.10
21495;DHT22;10909;53.590;10.054;2023-06-14T11:45:08;27.20;38.90
21495;DHT22;10909;53.590;10.054;2023-06-14T11:47:35;27.30;39.10
21495;DHT22;10909;53.590;10.054;2023-06-14T11:50:02;27.40;39.00
21495;DHT22;10909;53.590;10.054;2023-06-14T11:52:28;27.50;38.40
21495;DHT22;10909;53.590;10.054;2023-06-14T11:54:55;27.50;38.50
21495;DHT22;10909;53.590;10.054;2023-06-14T11:57:21;27.60;38.60
21495;DHT22;10909;53.590;10.054;2023-06-14T11:59:48;27.70;38.60
21495;DHT22;10909;53.590;10.054;2023-06-14T12:02:18;27.80;38.60
21495;DHT22;10909;53.590;10.054;2023-06-14T12:04:47;27.90;38.30
21495;DHT22;10909;53.590;10.054;2023-06-14T12:07:17;28.00;38.10
21495;DHT22;10909;53.590;10.054;2023-06-14T12:12:23;28.20;37.70
21495;DHT22;10909;53.590;10.054;2023-06-14T12:14:54;28.40;37.50
21495;DHT22;10909;53.590;10.054;2023-06-14T12:17:21;28.40;37.30
21495;DHT22;10909;53.590;10.054;2023-06-14T12:19:49;28.50;37.20
21495;DHT22;10909;53.590;10.054;2023-06-14T12:22:16;28.60;37.00
21495;DHT22;10909;53.590;10.054;2023-06-14T12:24:48;28.80;37.20
21495;DHT22;10909;53.590;10.054;2023-06-14T12:27:14;28.90;36.90
21495;DHT22;10909;53.590;10.054;2023-06-14T12:29:45;29.00;36.70
21495;DHT22;10909;53.590;10.054;2023-06-14T12:32:11;29.00;36.70
21495;DHT22;10909;53.590;10.054;2023-06-14T12:34:36;29.00;36.70
21495;DHT22;10909;53.590;10.054;2023-06-14T12:37:02;29.10;36.70
21495;DHT22;10909;53.590;10.054;2023-06-14T12:39:30;29.20;37.20
21495;DHT22;10909;53.590;10.054;2023-06-14T12:41:57;29.40;37.40
21495;DHT22;10909;53.590;10.054;2023-06-14T12:44:23;29.80;37.10
21495;DHT22;10909;53.590;10.054;2023-06-14T12:46:49;30.10;36.80
21495;DHT22;10909;53.590;10.054;2023-06-14T12:49:19;30.50;37.10
21495;DHT22;10909;53.590;10.054;2023-06-14T12:51:46;30.90;36.40
21495;DHT22;10909;53.590;10.054;2023-06-14T12:54:11;31.10;34.90
21495;DHT22;10909;53.590;10.054;2023-06-14T12:56:37;31.10;34.20
21495;DHT22;10909;53.590;10.054;2023-06-14T12:59:03;31.20;34.10
21495;DHT22;10909;53.590;10.054;2023-06-14T13:01:29;31.30;34.70
21495;DHT22;10909;53.590;10.054;2023-06-14T13:03:54;31.50;34.80
21495;DHT22;10909;53.590;10.054;2023-06-14T13:06:21;31.80;34.40
21495;DHT22;10909;53.590;10.054;2023-06-14T13:08:48;32.10;34.50
21495;DHT22;10909;53.590;10.054;2023-06-14T13:11:14;32.40;34.30
21495;DHT22;10909;53.590;10.054;2023-06-14T13:13:40;32.70;33.60
21495;DHT22;10909;53.590;10.054;2023-06-14T13:16:06;33.10;33.30
21495;DHT22;10909;53.590;10.054;2023-06-14T13:18:31;33.50;32.90
21495;DHT22;10909;53.590;10.054;2023-06-14T13:20:57;33.90;32.00
21495;DHT22;10909;53.590;10.054;2023-06-14T13:23:23;34.20;31.60
21495;DHT22;10909;53.590;10.054;2023-06-14T13:25:49;34.40;30.80
21495;DHT22;10909;53.590;10.054;2023-06-14T13:28:16;34.50;30.40
21495;DHT22;10909;53.590;10.054;2023-06-14T13:30:42;34.60;30.20
21495;DHT22;10909;53.590;10.054;2023-06-14T13:33:07;34.50;29.80
21495;DHT22;10909;53.590;10.054;2023-06-14T13:35:33;34.50;29.60
21495;DHT22;10909;53.590;10.054;2023-06-14T13:37:59;34.40;29.70
21495;DHT22;10909;53.590;10.054;2023-06-14T13:40:25;34.40;30.00
21495;DHT22;10909;53.590;10.054;2023-06-14T13:42:52;34.60;30.00
21495;DHT22;10909;53.590;10.054;2023-06-14T13:45:18;34.80;29.60
21495;DHT22;10909;53.590;10.054;2023-06-14T13:47:44;35.00;29.80
21495;DHT22;10909;53.590;10.054;2023-06-14T13:50:10;35.20;29.40
21495;DHT22;10909;53.590;10.054;2023-06-14T13:52:35;35.30;29.00
21495;DHT22;10909;53.590;10.054;2023-06-14T13:55:02;35.40;28.90
21495;DHT22;10909;53.590;10.054;2023-06-14T13:57:27;35.30;28.30
21495;DHT22;10909;53.590;10.054;2023-06-14T13:59:53;35.10;28.20
21495;DHT22;10909;53.590;10.054;2023-06-14T14:02:21;34.90;27.90
21495;DHT22;10909;53.590;10.054;2023-06-14T14:04:46;34.50;27.80
21495;DHT22;10909;53.590;10.054;2023-06-14T14:07:18;34.20;27.90
21495;DHT22;10909;53.590;10.054;2023-06-14T14:09:44;34.00;28.40
21495;DHT22;10909;53.590;10.054;2023-06-14T14:12:13;34.20;28.70
21495;DHT22;10909;53.590;10.054;2023-06-14T14:14:40;34.40;28.70
21495;DHT22;10909;53.590;10.054;2023-06-14T14:17:09;34.70;28.80
21495;DHT22;10909;53.590;10.054;2023-06-14T14:19:34;35.00;28.50
21495;DHT22;10909;53.590;10.054;2023-06-14T14:22:02;35.30;28.40
21495;DHT22;10909;53.590;10.054;2023-06-14T14:24:30;35.50;28.10
21495;DHT22;10909;53.590;10.054;2023-06-14T14:26:55;35.80;27.80
21495;DHT22;10909;53.590;10.054;2023-06-14T14:29:25;36.00;27.50
21495;DHT22;10909;53.590;10.054;2023-06-14T14:31:51;36.20;27.40
21495;DHT22;10909;53.590;10.054;2023-06-14T14:34:17;36.30;27.10
21495;DHT22;10909;53.590;10.054;2023-06-14T14:36:43;36.40;27.00
21495;DHT22;10909;53.590;10.054;2023-06-14T14:39:09;36.50;27.00
21495;DHT22;10909;53.590;10.054;2023-06-14T14:41:35;36.50;26.50
21495;DHT22;10909;53.590;10.054;2023-06-14T14:44:02;36.50;26.40
21495;DHT22;10909;53.590;10.054;2023-06-14T14:46:28;36.40;26.20
21495;DHT22;10909;53.590;10.054;2023-06-14T14:48:54;36.40;26.20
21495;DHT22;10909;53.590;10.054;2023-06-14T14:51:20;36.50;26.20
21495;DHT22;10909;53.590;10.054;2023-06-14T14:53:46;36.50;26.10
21495;DHT22;10909;53.590;10.054;2023-06-14T14:56:11;36.40;25.80
21495;DHT22;10909;53.590;10.054;2023-06-14T14:58:37;36.20;25.60
21495;DHT22;10909;53.590;10.054;2023-06-14T15:01:06;36.10;25.90
21495;DHT22;10909;53.590;10.054;2023-06-14T15:03:32;36.10;25.90
21495;DHT22;10909;53.590;10.054;2023-06-14T15:05:58;36.10;26.10
21495;DHT22;10909;53.590;10.054;2023-06-14T15:08:23;36.30;25.80
21495;DHT22;10909;53.590;10.054;2023-06-14T15:10:49;36.30;25.90
21495;DHT22;10909;53.590;10.054;2023-06-14T15:13:15;36.40;25.70
21495;DHT22;10909;53.590;10.054;2023-06-14T15:15:41;36.50;25.70
21495;DHT22;10909;53.590;10.054;2023-06-14T15:18:08;36.50;25.30
21495;DHT22;10909;53.590;10.054;2023-06-14T15:20:35;36.50;25.20
21495;DHT22;10909;53.590;10.054;2023-06-14T15:23:00;36.50;25.30
21495;DHT22;10909;53.590;10.054;2023-06-14T15:25:27;36.50;25.30
21495;DHT22;10909;53.590;10.054;2023-06-14T15:27:53;36.50;25.10
21495;DHT22;10909;53.590;10.054;2023-06-14T15:30:20;36.50;25.00
21495;DHT22;10909;53.590;10.054;2023-06-14T15:32:45;36.50;24.90
21495;DHT22;10909;53.590;10.054;2023-06-14T15:35:11;36.40;24.80